Time;durP1;ratioP1;P1;durP2;ratioP2;P2;SDS_P1;SDS_P2;PMS_P1;PMS_P2;Temp;Humidity;BMP_temperature;BMP_pressure;BME280_temperature;BME280_humidity;BME280_pressure;Samples;Min_cycle;Max_cycle;Signal;HPM_P1;HPM_P2
2023/11/08 00:00:49;;;;;;;4.33;2.77;;;;;;;9.37;78.88;98938.13;6206026;23;20082;-90
2023/11/08 00:03:15;;;;;;;5.88;3.40;;;;;;;9.54;78.96;98955.69;6204583;23;20047;-89
2023/11/08 00:05:42;;;;;;;7.00;3.77;;;;;;;9.44;79.18;98934.94;6187094;23;20020;-90
2023/11/08 00:08:10;;;;;;;12.35;3.45;;;;;;;9.47;79.32;98944.41;6187278;23;20077;-92
2023/11/08 00:10:37;;;;;;;6.78;3.58;;;;;;;9.11;79.29;98882.66;6188255;23;20020;-92
2023/11/08 00:13:04;;;;;;;5.20;3.30;;;;;;;9.57;79.42;98955.03;6188187;23;20016;-91
2023/11/08 00:15:55;;;;;;;6.82;3.58;;;;;;;9.64;79.34;98961.66;6187360;23;20039;-92
2023/11/08 00:18:22;;;;;;;6.03;3.70;;;;;;;9.33;78.98;98918.03;6212641;23;20018;-91
2023/11/08 00:20:48;;;;;;;6.13;3.50;;;;;;;9.26;79.01;98897.78;6211588;23;20046;-92
2023/11/08 00:23:14;;;;;;;4.28;3.20;;;;;;;9.58;79.07;98952.00;6236572;23;20012;-92
2023/11/08 00:26:13;;;;;;;11.90;3.38;;;;;;;9.62;78.54;98952.19;6189784;23;20016;-93
2023/11/08 00:28:47;;;;;;;4.78;3.10;;;;;;;9.41;77.86;98922.72;6236169;23;20024;-93
2023/11/08 00:31:16;;;;;;;;;;;;;;;9.57;78.24;98961.31;6238852;23;20012;-91
2023/11/08 00:33:42;;;;;;;5.82;3.13;;;;;;;9.25;78.26;98921.53;6212195;23;19916;-90
2023/11/08 00:36:09;;;;;;;5.65;3.28;;;;;;;9.35;78.36;98931.38;6209161;23;20121;-91
2023/11/08 00:38:35;;;;;;;8.20;3.88;;;;;;;9.18;78.55;98904.81;6212197;23;20335;-91
2023/11/08 00:41:02;;;;;;;11.52;4.10;;;;;;;9.40;78.26;98936.66;6214343;23;20020;-92
2023/11/08 00:43:28;;;;;;;6.63;3.83;;;;;;;9.43;78.40;98941.50;6214155;23;20012;-90
2023/11/08 00:46:02;;;;;;;5.72;3.33;;;;;;;9.18;78.38;98904.81;6206554;23;20042;-91
2023/11/08 00:48:28;;;;;;;9.23;3.60;;;;;;;9.31;78.04;98916.75;6211542;23;20015;-92
2023/11/08 00:50:55;;;;;;;7.18;3.53;;;;;;;9.35;78.05;98915.00;6213682;23;20062;-90
2023/11/08 00:53:22;;;;;;;5.63;3.53;;;;;;;9.47;78.32;98947.97;6213280;23;20020;-92
2023/11/08 00:55:53;;;;;;;10.25;3.72;;;;;;;9.35;78.59;98928.63;6211650;23;20076;-91
2023/11/08 00:58:19;;;;;;;6.45;3.80;;;;;;;9.55;78.88;98958.09;6185076;23;20024;-91
2023/11/08 01:00:45;;;;;;;6.25;3.42;;;;;;;9.25;78.53;98915.28;6235853;23;20068;-90
2023/11/08 01:03:12;;;;;;;5.63;3.70;;;;;;;9.44;78.13;98950.47;6210812;23;20016;-91
2023/11/08 01:05:42;;;;;;;7.97;3.33;;;;;;;9.47;78.52;98961.59;6234919;23;20024;-89
2023/11/08 01:08:33;;;;;;;10.13;3.75;;;;;;;9.50;78.66;98960.94;6236007;23;20047;-92
2023/11/08 01:11:17;;;;;;;8.40;3.30;;;;;;;9.10;78.07;98906.38;6184802;23;20020;-91
2023/11/08 01:13:45;;;;;;;8.45;3.70;;;;;;;9.26;78.23;98930.50;6210355;23;20111;-91
2023/11/08 01:16:13;;;;;;;9.32;3.80;;;;;;;9.26;78.17;98927.78;6210761;23;20011;-91
2023/11/08 01:18:46;;;;;;;7.05;3.25;;;;;;;9.24;77.47;98921.84;6237631;23;20020;-91
2023/11/08 01:21:22;;;;;;;5.13;3.40;;;;;;;9.29;78.14;98933.41;6187745;23;20438;-91
2023/11/08 01:23:51;;;;;;;6.55;3.25;;;;;;;9.27;78.03;98937.56;6220616;23;20009;-93
2023/11/08 01:26:18;;;;;;;8.93;3.28;;;;;;;9.12;78.00;98911.53;6244541;23;20454;-91
2023/11/08 01:28:45;;;;;;;4.93;3.30;;;;;;;9.24;78.29;98932.75;6235545;23;20034;-90
2023/11/08 01:31:12;;;;;;;10.15;4.18;;;;;;;9.03;78.56;98897.84;6237674;23;20501;-90
2023/11/08 01:33:38;;;;;;;10.98;4.03;;;;;;;9.22;78.72;98926.81;6208927;23;20038;-91
2023/11/08 01:36:10;;;;;;;6.72;3.70;;;;;;;8.95;78.46;98893.16;6210785;23;20453;-90
2023/11/08 01:38:36;;;;;;;7.35;4.30;;;;;;;9.29;78.90;98938.06;6233943;23;20020;-89
2023/11/08 01:41:02;;;;;;;8.38;4.00;;;;;;;9.10;78.62;98917.28;6208935;23;20037;-90
2023/11/08 01:43:30;;;;;;;8.10;4.43;;;;;;;9.16;79.10;98924.22;6236123;23;20016;-90
2023/11/08 01:46:06;;;;;;;7.07;4.07;;;;;;;9.31;79.18;98946.75;6209821;23;20098;-90
2023/11/08 01:48:34;;;;;;;8.80;4.32;;;;;;;9.13;79.33;98913.91;6235311;23;20036;-90
2023/11/08 01:51:03;;;;;;;9.68;4.72;;;;;;;9.31;79.48;98941.31;6211416;23;20040;-89
2023/11/08 01:53:33;;;;;;;8.60;4.30;;;;;;;9.22;79.09;98924.09;6213600;23;20004;-91
2023/11/08 01:56:00;;;;;;;10.27;4.75;;;;;;;9.00;79.58;98890.28;6211865;23;20020;-91
2023/11/08 01:58:29;;;;;;;8.15;3.88;;;;;;;9.41;79.17;98954.66;6262137;23;20042;-91
2023/11/08 02:00:55;;;;;;;19.55;5.00;;;;;;;9.05;79.06;98889.34;6163396;23;20047;-92
2023/11/08 02:03:23;;;;;;;6.65;4.75;;;;;;;9.29;79.45;98938.88;6212444;23;20016;-92
2023/11/08 02:06:15;;;;;;;8.57;4.72;;;;;;;9.39;79.54;98965.06;6236586;23;20027;-91
2023/11/08 02:08:42;;;;;;;8.32;4.72;;;;;;;9.17;79.63;98933.19;6211572;23;20031;-90
2023/11/08 02:11:13;;;;;;;8.80;4.50;;;;;;;9.37;79.67;98961.84;6217021;23;20119;-92
2023/11/08 02:13:41;;;;;;;12.77;5.40;;;;;;;9.04;79.86;98910.38;6264890;23;20020;-89
2023/11/08 02:16:07;;;;;;;10.02;5.07;;;;;;;8.98;80.04;98903.44;6185949;23;20023;-92
2023/11/08 02:18:36;;;;;;;11.55;5.47;;;;;;;9.10;80.61;98928.19;6212661;23;20039;-89
2023/11/08 02:21:03;;;;;;;12.05;5.63;;;;;;;9.28;80.39;98956.38;6212532;23;20016;-93
2023/11/08 02:23:31;;;;;;;8.57;5.35;;;;;;;9.17;80.44;98944.09;6188050;23;20050;-91
2023/11/08 02:25:59;;;;;;;11.25;5.03;;;;;;;9.07;80.34;98928.00;6214626;23;20016;-91
2023/11/08 02:28:26;;;;;;;9.07;4.97;;;;;;;9.18;80.61;98943.81;6188039;23;20347;-89
2023/11/08 02:30:54;;;;;;;8.32;5.05;;;;;;;8.93;80.32;98909.81;6211406;23;20016;-90
2023/11/08 02:33:23;;;;;;;11.40;5.07;;;;;;;9.29;80.51;98963.41;6213102;23;20465;-91
2023/11/08 02:35:49;;;;;;;10.20;4.70;;;;;;;9.27;80.59;98956.66;6186711;23;20016;-91
2023/11/08 02:38:15;;;;;;;12.25;4.82;;;;;;;9.08;80.27;98926.91;6236216;23;20020;-91
2023/11/08 02:40:43;;;;;;;15.00;5.05;;;;;;;9.06;80.46;98929.94;6237134;23;20014;-91
2023/11/08 02:43:11;;;;;;;;;;;;;;;9.30;80.24;98962.28;6213466;23;20107;-90
2023/11/08 02:45:49;;;;;;;8.93;4.78;;;;;;;8.90;80.24;98898.72;6239344;23;19919;-89
2023/11/08 02:48:15;;;;;;;9.85;5.10;;;;;;;9.11;79.87;98939.91;6237558;23;20023;-90
2023/11/08 02:50:41;;;;;;;11.80;4.72;;;;;;;8.97;80.20;98912.72;6212415;23;20020;-91
2023/11/08 02:53:08;;;;;;;10.15;5.15;;;;;;;8.78;80.29;98890.34;6187624;23;20087;-90
2023/11/08 02:55:39;;;;;;;7.93;4.88;;;;;;;8.91;80.54;98920.25;6236541;23;20029;-91
2023/11/08 02:58:05;;;;;;;14.55;5.60;;;;;;;9.03;80.88;98941.47;6213480;23;20048;-92
2023/11/08 03:00:31;;;;;;;12.70;5.65;;;;;;;9.02;80.63;98944.50;6214519;23;20016;-91
2023/11/08 03:02:57;;;;;;;12.93;5.33;;;;;;;8.91;80.97;98942.03;6212121;23;20063;-89
2023/11/08 03:05:24;;;;;;;10.13;5.33;;;;;;;8.84;81.33;98938.13;6164790;23;20019;-92
2023/11/08 03:07:54;;;;;;;7.28;5.25;;;;;;;8.58;82.01;98919.69;6213299;23;20043;-90
2023/11/08 03:10:21;;;;;;;11.68;5.38;;;;;;;8.82;82.31;98959.44;6213949;23;20024;-91
2023/11/08 03:12:50;;;;;;;10.43;5.63;;;;;;;8.52;82.18;98920.94;6189296;23;20366;-91
2023/11/08 03:15:20;;;;;;;17.00;6.32;;;;;;;8.44;82.48;98908.84;6214114;23;20072;-92
2023/11/08 03:17:50;;;;;;;13.35;5.55;;;;;;;8.48;82.39;98917.22;6216462;23;20054;-91
2023/11/08 03:20:17;;;;;;;10.40;5.38;;;;;;;8.78;82.41;98969.38;6212446;23;20020;-90
2023/11/08 03:22:45;;;;;;;11.15;5.18;;;;;;;8.46;82.47;98922.94;6239453;23;20051;-89
2023/11/08 03:25:13;;;;;;;12.23;6.05;;;;;;;8.81;82.55;98972.28;6212427;23;20076;-90
2023/11/08 03:27:41;;;;;;;16.42;6.03;;;;;;;8.46;82.41;98909.34;6188138;23;20012;-90
2023/11/08 03:30:22;;;;;;;13.07;5.47;;;;;;;8.83;82.49;98971.97;6215199;23;20020;-91
2023/11/08 03:32:54;;;;;;;11.88;5.70;;;;;;;8.46;82.45;98924.88;6189608;23;20004;-90
2023/11/08 03:35:44;;;;;;;12.52;5.93;;;;;;;8.49;82.45;98926.19;6192611;23;20027;-93
2023/11/08 03:38:21;;;;;;;12.35;5.88;;;;;;;8.75;81.93;98953.63;6218617;23;20020;-89
2023/11/08 03:40:55;;;;;;;12.75;5.30;;;;;;;8.39;81.36;98884.44;6216453;23;20008;-92
2023/11/08 03:43:25;;;;;;;13.30;5.28;;;;;;;8.58;81.51;98927.88;6217538;23;20004;-93
2023/11/08 03:45:51;;;;;;;8.85;5.70;;;;;;;8.91;81.92;98982.13;6215998;23;20020;-90
2023/11/08 03:48:52;;;;;;;10.20;5.28;;;;;;;8.76;81.65;98966.94;6214986;23;20026;-92
2023/11/08 03:51:40;;;;;;;8.95;5.50;;;;;;;8.53;81.47;98921.72;6243791;23;20208;-92
2023/11/08 03:54:13;;;;;;;7.95;5.40;;;;;;;8.59;81.60;98951.25;6169664;23;20020;-92
2023/11/08 03:57:04;;;;;;;15.95;5.93;;;;;;;8.49;81.92;98927.00;6271093;23;20016;-93
2023/11/08 04:06:30;;;;;;;12.85;6.00;;;;;;;8.98;81.59;98993.41;6300794;22;20024;-91
2023/11/08 04:15:09;;;;;;;14.73;6.07;;;;;;;8.91;81.44;98993.84;6296875;22;20083;-92
2023/11/08 04:48:50;;;;;;;12.90;6.53;;;;;;;9.12;79.68;99007.75;6300066;22;20048;-89
2023/11/08 04:52:30;;;;;;;10.13;6.32;;;;;;;9.03;80.20;99009.63;6201116;22;20035;-89
2023/11/08 04:55:05;;;;;;;9.50;6.50;;;;;;;8.90;80.29;98999.59;6248431;22;20020;-89
2023/11/08 04:58:06;;;;;;;10.80;6.47;;;;;;;8.76;80.55;98985.22;6279713;22;20027;-90
2023/11/08 05:04:49;;;;;;;13.27;6.83;;;;;;;8.88;80.81;99015.47;6299416;22;20056;-90
2023/11/08 05:08:12;;;;;;;12.43;6.75;;;;;;;8.94;81.02;99022.41;6274430;22;20251;-89
2023/11/08 05:11:14;;;;;;;13.00;6.82;;;;;;;8.52;80.99;98956.34;6226260;22;20023;-90
2023/11/08 05:13:43;;;;;;;15.30;7.63;;;;;;;8.79;80.85;98992.78;6224760;22;20024;-90
2023/11/08 05:16:12;;;;;;;16.83;6.75;;;;;;;8.68;80.70;98986.75;6298180;22;20024;-89
2023/11/08 05:19:17;;;;;;;18.13;7.45;;;;;;;8.94;80.54;99023.19;6255529;22;19999;-89
2023/11/08 05:24:39;;;;;;;12.75;6.93;;;;;;;8.75;80.71;98994.50;6332305;22;20003;-90
2023/11/08 05:35:56;;;;;;;11.10;6.82;;;;;;;8.58;79.44;98959.75;6314279;22;20027;-89
2023/11/08 05:38:31;;;;;;;15.63;7.28;;;;;;;9.17;79.82;99036.81;6229092;22;20006;-88
2023/11/08 05:44:57;;;;;;;13.77;6.93;;;;;;;8.96;78.89;98998.34;6326712;22;20026;-92
2023/11/08 05:47:27;;;;;;;20.92;6.95;;;;;;;9.10;78.34;99012.72;6284591;22;20003;-92
2023/11/08 05:56:49;;;;;;;14.27;6.03;;;;;;;9.29;77.43;99058.09;6327226;22;20027;-91
2023/11/08 06:00:14;;;;;;;13.93;5.97;;;;;;;9.28;77.39;99053.75;6280646;22;20046;-90
2023/11/08 06:03:01;;;;;;;15.27;8.43;;;;;;;8.90;76.35;98991.41;6306653;22;20111;-91
2023/11/08 06:11:44;;;;;;;14.50;5.93;;;;;;;8.78;77.09;98983.00;6317927;22;20070;-89
2023/11/08 06:21:23;;;;;;;9.02;5.65;;;;;;;9.37;77.04;99051.88;6331890;22;20027;-93
2023/11/08 06:24:59;;;;;;;9.65;5.63;;;;;;;9.04;76.86;99018.59;6334994;22;20080;-90
2023/11/08 06:31:06;;;;;;;7.55;5.55;;;;;;;8.66;77.02;98970.72;6300915;22;20027;-91
2023/11/08 06:33:41;;;;;;;9.25;5.47;;;;;;;8.97;77.14;99023.69;6275449;22;20009;-89
2023/11/08 06:36:42;;;;;;;9.98;5.95;;;;;;;8.74;77.58;98996.44;6253324;22;19996;-93
2023/11/08 06:40:39;;;;;;;11.73;6.10;;;;;;;8.80;77.44;99011.53;6262317;22;20079;-91
2023/11/08 06:47:19;;;;;;;21.95;6.93;;;;;;;9.38;77.11;99064.41;6324333;22;20003;-90
2023/11/08 06:51:18;;;;;;;11.98;6.05;;;;;;;8.71;76.97;98956.16;6303557;22;20057;-91
2023/11/08 06:54:27;;;;;;;18.95;7.93;;;;;;;9.46;76.71;99062.84;6306390;22;20018;-92
2023/11/08 06:57:03;;;;;;;16.05;7.82;;;;;;;8.98;76.82;98979.78;6224618;23;20027;-89
2023/11/08 06:59:33;;;;;;;11.80;6.82;;;;;;;9.25;76.53;99030.63;6190087;23;20027;-92
2023/11/08 07:17:52;;;;;;;17.73;5.78;;;;;;;9.00;74.50;98957.63;6328459;22;20007;-91
2023/11/08 07:20:33;;;;;;;13.30;5.90;;;;;;;9.30;74.50;99019.56;6280277;22;20025;-92
2023/11/08 07:35:38;;;;;;;20.25;6.70;;;;;;;9.51;74.41;99038.16;6245889;22;20111;-91
2023/11/08 07:39:01;;;;;;;9.98;5.72;;;;;;;9.66;74.08;99048.66;6159915;23;20040;-93
2023/11/08 07:48:00;;;;;;;11.48;5.57;;;;;;;9.86;72.96;99089.06;6302086;22;20007;-90
2023/11/08 08:14:48;;;;;;;9.30;5.78;;;;;;;9.62;74.19;99028.59;6210412;23;20029;-89
2023/11/08 08:23:32;;;;;;;12.38;6.22;;;;;;;9.47;74.46;99021.63;6316872;22;20028;-91
2023/11/08 09:03:19;;;;;;;11.82;5.57;;;;;;;10.32;70.84;99131.56;6297272;22;20028;-89
2023/11/08 09:13:16;;;;;;;;;;;;;;;10.33;70.44;99124.16;6332763;22;20033;-90
2023/11/08 10:29:22;;;;;;;10.65;4.93;;;;;;;10.90;66.83;99113.22;6316868;22;20019;-88
2023/11/08 10:56:09;;;;;;;13.88;5.30;;;;;;;10.91;65.55;99056.59;6289438;22;20053;-90
2023/11/08 10:58:46;;;;;;;21.35;5.45;;;;;;;11.09;65.14;99071.88;6226451;22;20020;-91
2023/11/08 11:17:27;;;;;;;15.00;4.43;;;;;;;11.37;64.25;99074.28;6292285;22;20064;-91
2023/11/08 11:42:07;;;;;;;27.52;6.30;;;;;;;11.26;66.50;99096.50;6312781;22;20007;-90
2023/11/08 11:45:25;;;;;;;12.93;5.50;;;;;;;11.26;66.46;99088.31;6279221;22;20106;-90
2023/11/08 11:49:10;;;;;;;21.00;7.75;;;;;;;11.29;66.53;99086.84;6304391;22;20011;-91
2023/11/08 11:52:02;;;;;;;27.85;7.38;;;;;;;11.27;66.93;99081.69;6302553;22;20019;-89
2023/11/08 12:18:05;;;;;;;19.17;5.43;;;;;;;10.73;66.16;99012.06;6317374;22;20022;-91
2023/11/08 13:24:55;;;;;;;22.02;8.63;;;;;;;9.98;70.45;99003.06;6304281;22;20086;-90
2023/11/08 13:55:38;;;;;;;17.00;7.65;;;;;;;9.39;73.26;99001.34;6322091;22;20023;-91
2023/11/08 14:46:42;;;;;;;18.10;7.35;;;;;;;9.87;75.18;99076.25;6326232;22;20011;-90
2023/11/08 14:50:11;;;;;;;19.38;8.90;;;;;;;9.94;75.12;99103.09;6282287;22;20015;-92
2023/11/08 14:53:09;;;;;;;21.42;9.30;;;;;;;9.92;75.59;99106.13;6257306;22;20030;-91
2023/11/08 14:56:05;;;;;;;14.65;7.75;;;;;;;9.94;75.24;99097.66;6252178;22;20016;-91
2023/11/08 15:08:39;;;;;;;16.90;7.05;;;;;;;9.90;74.83;99083.81;6302756;22;20075;-90
2023/11/08 15:24:21;;;;;;;18.92;7.82;;;;;;;9.41;76.03;99053.69;6292646;22;20028;-90
2023/11/08 15:44:41;;;;;;;21.65;8.00;;;;;;;9.62;76.72;99074.97;6278221;22;20538;-89
2023/11/08 16:11:39;;;;;;;21.38;8.50;;;;;;;8.77;78.07;98992.25;6306945;22;20022;-88
2023/11/08 16:14:59;;;;;;;17.80;8.60;;;;;;;9.46;77.81;99085.47;6248027;22;20049;-90
2023/11/08 16:18:29;;;;;;;14.93;8.70;;;;;;;9.49;77.98;99086.78;6277972;22;20052;-91
2023/11/08 16:21:43;;;;;;;23.77;8.73;;;;;;;9.54;77.58;99076.56;6269785;22;20003;-91
2023/11/08 16:33:46;;;;;;;20.13;11.07;;;;;;;9.42;77.13;99005.38;6298810;22;20027;-92
2023/11/08 16:36:44;;;;;;;22.25;11.57;;;;;;;9.75;76.92;99048.72;6224890;22;19996;-90
2023/11/08 16:39:17;;;;;;;21.35;11.05;;;;;;;9.15;76.79;98954.53;6192469;22;20025;-89
2023/11/08 16:42:35;;;;;;;27.45;10.45;;;;;;;9.61;76.98;99043.38;6247451;22;20023;-90
2023/11/08 16:45:03;;;;;;;22.40;10.07;;;;;;;9.57;77.23;99039.63;6278089;22;20023;-90
2023/11/08 16:47:33;;;;;;;19.17;9.15;;;;;;;9.24;77.86;99006.38;6256195;22;19999;-90
2023/11/08 16:50:04;;;;;;;25.10;10.73;;;;;;;8.77;78.13;98932.31;6256861;22;20030;-90
2023/11/08 16:52:54;;;;;;;25.38;11.05;;;;;;;9.21;78.08;99010.56;6277233;22;20019;-89
2023/11/08 16:56:05;;;;;;;24.30;12.63;;;;;;;8.89;77.50;98947.00;6150762;23;20084;-90
2023/11/08 17:13:42;;;;;;;21.70;10.02;;;;;;;9.44;77.44;99035.06;6321837;22;20027;-90
2023/11/08 17:16:10;;;;;;;22.70;10.00;;;;;;;9.05;77.62;98980.13;6273053;22;20016;-90
2023/11/08 17:18:39;;;;;;;23.67;9.70;;;;;;;8.94;77.08;98951.53;6249024;22;20007;-90
2023/11/08 17:53:45;;;;;;;23.48;9.70;;;;;;;8.95;76.87;98980.38;6278116;22;20016;-91
2023/11/08 17:56:46;;;;;;;24.98;9.98;;;;;;;9.23;77.25;99042.97;6247400;22;20016;-90
2023/11/08 17:59:23;;;;;;;30.58;11.18;;;;;;;9.13;77.49;99044.00;6299589;22;20027;-86
2023/11/08 18:02:10;;;;;;;30.83;11.95;;;;;;;8.78;77.86;98997.41;6218291;22;20020;-86
2023/11/08 18:05:27;;;;;;;53.65;27.55;;;;;;;8.64;78.14;98983.03;6278552;22;20054;-87
2023/11/08 18:07:58;;;;;;;33.53;16.90;;;;;;;8.99;78.40;99029.66;6245240;22;20043;-86
2023/11/08 18:10:24;;;;;;;42.85;18.65;;;;;;;8.53;78.19;98976.22;6245360;22;20028;-87
2023/11/08 18:12:54;;;;;;;34.53;12.98;;;;;;;8.91;78.48;99033.94;6252456;22;20051;-89
2023/11/08 18:18:14;;;;;;;23.52;12.43;;;;;;;8.62;78.32;98994.25;6179668;23;20040;-87
2023/11/08 18:20:43;;;;;;;29.35;11.82;;;;;;;8.79;78.05;99012.66;6204351;23;20097;-86
2023/11/08 18:23:50;;;;;;;25.80;14.68;;;;;;;8.90;78.68;99026.84;6228262;22;20031;-86
2023/11/08 18:29:37;;;;;;;18.40;8.40;;;;;;;8.58;78.17;98987.81;6328454;22;20027;-89
2023/11/08 18:32:40;;;;;;;21.00;8.75;;;;;;;9.00;78.06;99033.97;6305365;22;19996;-86
2023/11/08 18:35:49;;;;;;;19.45;8.32;;;;;;;9.10;77.57;99028.28;6280341;22;20023;-88
2023/11/08 18:39:26;;;;;;;13.68;7.63;;;;;;;8.96;77.33;99032.97;6333787;22;20029;-87
2023/11/08 18:46:18;;;;;;;19.98;8.55;;;;;;;9.04;77.63;99027.59;6332459;22;20086;-87
2023/11/08 18:48:50;;;;;;;14.80;6.97;;;;;;;8.68;77.25;98982.13;6326036;22;20026;-86
2023/11/08 18:51:19;;;;;;;14.02;7.15;;;;;;;8.78;77.48;98996.63;6269833;22;20027;-85
2023/11/08 18:54:25;;;;;;;16.35;8.30;;;;;;;9.07;77.05;99032.44;6332688;22;20023;-87
2023/11/08 18:57:46;;;;;;;15.85;8.02;;;;;;;8.82;76.83;98994.88;6268877;22;20019;-87
2023/11/08 19:00:38;;;;;;;11.82;7.07;;;;;;;8.97;76.88;99024.47;6274321;22;20003;-89
2023/11/08 19:14:34;;;;;;;18.98;7.88;;;;;;;8.91;76.35;98993.84;6300068;22;20023;-88
2023/11/08 19:17:41;;;;;;;18.48;7.15;;;;;;;9.04;76.17;99011.25;6298820;22;20004;-90
2023/11/08 19:20:57;;;;;;;18.33;7.78;;;;;;;8.76;75.73;98958.75;6183589;23;20020;-87
2023/11/08 19:24:17;;;;;;;16.27;7.93;;;;;;;9.05;75.91;99001.16;6205140;23;20031;-88
2023/11/08 19:27:30;;;;;;;15.40;7.22;;;;;;;8.59;75.49;98953.19;6157783;23;20005;-90
2023/11/08 19:33:10;;;;;;;15.35;7.65;;;;;;;8.59;75.49;98937.63;6331111;22;20027;-88
2023/11/08 19:39:30;;;;;;;19.38;9.02;;;;;;;9.00;74.84;98982.97;6310208;22;20037;-88
2023/11/08 19:42:17;;;;;;;27.40;8.93;;;;;;;9.14;74.51;98993.84;6279717;22;20082;-88
2023/11/08 19:45:40;;;;;;;17.13;7.60;;;;;;;9.32;73.98;99005.66;6276029;22;20003;-89
2023/11/08 19:48:59;;;;;;;20.42;8.80;;;;;;;9.27;74.03;99009.31;6331033;22;20015;-91
2023/11/08 19:51:33;;;;;;;20.98;7.95;;;;;;;9.02;73.84;98979.94;6321331;22;20030;-89
2023/11/08 19:53:59;;;;;;;21.10;8.63;;;;;;;9.07;74.26;98999.72;6301967;22;20074;-88
